首页
METAR-TAF:

METAR-TAF

机场 :

西奧多·弗朗西斯·格林紀念州立機場

普罗维登斯, 罗得岛州, 美国

纬度: 41-43-26N, 经度: 071-25-41W, 海拔: 16米

当前天气观测

该预报发布于1小时和7分钟前的00:51 UTC
风速3节,风向西南
温度 23°C
湿度 41%
气压 1010 hPa
能見度: 16.1公里
少量云层高于6000英尺
少量云层高于12000英尺
少量云层高于30000英尺

METAR: KPVD 310051Z 22003KT 10SM FEW060 FEW120 FEW300 23/09 A2983 RMK AO2 SLP101 T02280089

时间: 21:58 (01:58 UTC)

预报

该预报发布于2小时和38分钟前的23:20 UTC
预报有效从31日的 00点(UTC)到 31日的 24点(UTC)
风速10节,风向西转西北
能見度: 10公里
少量云层高于6000英尺
少量云层高于12000英尺
少量云层高于30000英尺
从 31日的 0500点(UTC)
风速6节,风向西转西北
能見度: 10公里
散云层高于20000英尺
从 31日的 1100点(UTC)
风速10节,风向西北,有时为19节阵风
能見度: 10公里
天空无云
从 31日的 1900点(UTC)
风速11节,风向西北
能見度: 10公里
少量云层高于12000英尺

TAF: KPVD 302320Z 3100/3124 30010KT P6SM FEW060 FEW120 FEW300 FM310500 29006KT P6SM SCT200 FM311100 32010G19KT P6SM SKC FM311900 32011KT P6SM FEW120

超过4000个机场的气象观测和天气预报(METAR&TAF报告)。

可查询的气象台以黄色和红色小点在地图上表示。

将鼠标移到小点上方,可查看气象台名称。

然后点击查看天气观测和预报。

如需切换地图:点击带黑十字的绿色按钮放大地图;点击带横线的绿色按钮缩小地图;或者点击绿色箭头查看邻近地区的地图。


METAR-TAF: